sensor_id;sensor_type;location;lat;lon;timestamp;P1;durP1;ratioP1;P2;durP2;ratioP2
15317;SDS011;7759;52.528;13.346;2022-10-15T00:02:09;13.23;;;8.43;;
15317;SDS011;7759;52.528;13.346;2022-10-15T00:04:35;12.10;;;7.37;;
15317;SDS011;7759;52.528;13.346;2022-10-15T00:07:01;10.17;;;6.27;;
15317;SDS011;7759;52.528;13.346;2022-10-15T00:09:27;13.37;;;8.07;;
15317;SDS011;7759;52.528;13.346;2022-10-15T00:11:53;12.03;;;8.23;;
15317;SDS011;7759;52.528;13.346;2022-10-15T00:14:19;13.13;;;8.20;;
15317;SDS011;7759;52.528;13.346;2022-10-15T00:16:45;15.80;;;8.57;;
15317;SDS011;7759;52.528;13.346;2022-10-15T00:19:12;12.27;;;7.20;;
15317;SDS011;7759;52.528;13.346;2022-10-15T00:21:38;12.77;;;7.93;;
15317;SDS011;7759;52.528;13.346;2022-10-15T00:24:05;10.87;;;7.47;;
15317;SDS011;7759;52.528;13.346;2022-10-15T00:26:31;12.80;;;8.20;;
15317;SDS011;7759;52.528;13.346;2022-10-15T00:28:58;13.43;;;8.03;;
15317;SDS011;7759;52.528;13.346;2022-10-15T00:31:26;12.23;;;7.77;;
15317;SDS011;7759;52.528;13.346;2022-10-15T00:33:53;15.23;;;8.82;;
15317;SDS011;7759;52.528;13.346;2022-10-15T00:36:20;12.07;;;8.03;;
15317;SDS011;7759;52.528;13.346;2022-10-15T00:38:46;12.77;;;8.20;;
15317;SDS011;7759;52.528;13.346;2022-10-15T00:41:14;14.50;;;8.83;;
15317;SDS011;7759;52.528;13.346;2022-10-15T00:46:10;13.07;;;8.53;;
15317;SDS011;7759;52.528;13.346;2022-10-15T00:48:38;12.83;;;7.80;;
15317;SDS011;7759;52.528;13.346;2022-10-15T00:51:04;18.03;;;8.43;;
15317;SDS011;7759;52.528;13.346;2022-10-15T00:53:32;12.57;;;7.60;;
15317;SDS011;7759;52.528;13.346;2022-10-15T00:55:58;15.00;;;8.10;;
15317;SDS011;7759;52.528;13.346;2022-10-15T00:58:26;14.73;;;9.00;;
15317;SDS011;7759;52.528;13.346;2022-10-15T01:00:56;15.10;;;8.90;;
15317;SDS011;7759;52.528;13.346;2022-10-15T01:03:22;15.80;;;8.43;;
15317;SDS011;7759;52.528;13.346;2022-10-15T01:05:50;12.97;;;8.30;;
15317;SDS011;7759;52.528;13.346;2022-10-15T01:08:17;14.17;;;8.77;;
15317;SDS011;7759;52.528;13.346;2022-10-15T01:13:24;10.77;;;7.13;;
15317;SDS011;7759;52.528;13.346;2022-10-15T01:16:07;13.13;;;8.33;;
15317;SDS011;7759;52.528;13.346;2022-10-15T01:18:41;14.27;;;8.27;;
15317;SDS011;7759;52.528;13.346;2022-10-15T01:23:40;13.17;;;8.33;;
15317;SDS011;7759;52.528;13.346;2022-10-15T01:26:15;10.83;;;7.33;;
15317;SDS011;7759;52.528;13.346;2022-10-15T01:28:47;11.60;;;7.20;;
15317;SDS011;7759;52.528;13.346;2022-10-15T01:31:20;15.20;;;8.20;;
15317;SDS011;7759;52.528;13.346;2022-10-15T01:34:11;14.63;;;8.80;;
15317;SDS011;7759;52.528;13.346;2022-10-15T01:36:39;14.60;;;8.30;;
15317;SDS011;7759;52.528;13.346;2022-10-15T01:39:10;15.10;;;9.13;;
15317;SDS011;7759;52.528;13.346;2022-10-15T01:41:40;15.43;;;8.80;;
15317;SDS011;7759;52.528;13.346;2022-10-15T01:44:09;13.43;;;9.03;;
15317;SDS011;7759;52.528;13.346;2022-10-15T01:49:23;11.33;;;7.83;;
15317;SDS011;7759;52.528;13.346;2022-10-15T01:51:50;14.20;;;7.80;;
15317;SDS011;7759;52.528;13.346;2022-10-15T01:54:17;13.10;;;7.17;;
15317;SDS011;7759;52.528;13.346;2022-10-15T01:56:44;11.83;;;7.73;;
15317;SDS011;7759;52.528;13.346;2022-10-15T01:59:16;14.93;;;8.57;;
15317;SDS011;7759;52.528;13.346;2022-10-15T02:01:44;13.53;;;7.90;;
15317;SDS011;7759;52.528;13.346;2022-10-15T02:04:18;12.23;;;7.63;;
15317;SDS011;7759;52.528;13.346;2022-10-15T02:06:47;13.70;;;7.73;;
15317;SDS011;7759;52.528;13.346;2022-10-15T02:09:28;12.18;;;7.55;;
15317;SDS011;7759;52.528;13.346;2022-10-15T02:12:07;7.97;;;5.83;;
15317;SDS011;7759;52.528;13.346;2022-10-15T02:14:41;13.43;;;7.87;;
15317;SDS011;7759;52.528;13.346;2022-10-15T02:17:10;11.27;;;7.53;;
15317;SDS011;7759;52.528;13.346;2022-10-15T02:19:48;13.97;;;7.83;;
15317;SDS011;7759;52.528;13.346;2022-10-15T02:24:52;13.80;;;8.17;;
15317;SDS011;7759;52.528;13.346;2022-10-15T02:27:19;13.23;;;7.97;;
15317;SDS011;7759;52.528;13.346;2022-10-15T02:29:45;14.00;;;8.90;;
15317;SDS011;7759;52.528;13.346;2022-10-15T02:32:11;11.93;;;7.70;;
15317;SDS011;7759;52.528;13.346;2022-10-15T02:34:40;12.50;;;8.03;;
15317;SDS011;7759;52.528;13.346;2022-10-15T02:37:06;13.07;;;7.27;;
15317;SDS011;7759;52.528;13.346;2022-10-15T02:39:33;14.73;;;8.70;;
15317;SDS011;7759;52.528;13.346;2022-10-15T02:42:01;12.67;;;7.80;;
15317;SDS011;7759;52.528;13.346;2022-10-15T02:44:27;10.90;;;7.00;;
15317;SDS011;7759;52.528;13.346;2022-10-15T02:46:52;13.30;;;8.73;;
15317;SDS011;7759;52.528;13.346;2022-10-15T02:49:18;14.50;;;8.80;;
15317;SDS011;7759;52.528;13.346;2022-10-15T02:51:44;14.53;;;8.13;;
15317;SDS011;7759;52.528;13.346;2022-10-15T02:54:10;13.87;;;8.83;;
15317;SDS011;7759;52.528;13.346;2022-10-15T02:56:36;11.87;;;8.27;;
15317;SDS011;7759;52.528;13.346;2022-10-15T02:59:03;13.33;;;8.83;;
15317;SDS011;7759;52.528;13.346;2022-10-15T03:01:31;14.50;;;8.23;;
15317;SDS011;7759;52.528;13.346;2022-10-15T03:03:56;10.80;;;7.13;;
15317;SDS011;7759;52.528;13.346;2022-10-15T03:06:23;14.47;;;8.87;;
15317;SDS011;7759;52.528;13.346;2022-10-15T03:08:48;11.60;;;8.03;;
15317;SDS011;7759;52.528;13.346;2022-10-15T03:11:14;11.97;;;8.33;;
15317;SDS011;7759;52.528;13.346;2022-10-15T03:13:40;11.97;;;7.43;;
15317;SDS011;7759;52.528;13.346;2022-10-15T03:16:07;14.60;;;8.63;;
15317;SDS011;7759;52.528;13.346;2022-10-15T03:18:33;11.90;;;6.87;;
15317;SDS011;7759;52.528;13.346;2022-10-15T03:20:59;13.67;;;8.53;;
15317;SDS011;7759;52.528;13.346;2022-10-15T03:23:26;11.37;;;7.73;;
15317;SDS011;7759;52.528;13.346;2022-10-15T03:25:53;12.57;;;8.10;;
15317;SDS011;7759;52.528;13.346;2022-10-15T03:28:19;14.53;;;8.13;;
15317;SDS011;7759;52.528;13.346;2022-10-15T03:30:45;12.30;;;7.90;;
15317;SDS011;7759;52.528;13.346;2022-10-15T03:33:11;13.47;;;8.83;;
15317;SDS011;7759;52.528;13.346;2022-10-15T03:35:37;11.93;;;7.67;;
15317;SDS011;7759;52.528;13.346;2022-10-15T03:38:05;12.47;;;8.27;;
15317;SDS011;7759;52.528;13.346;2022-10-15T03:40:31;17.00;;;9.03;;
15317;SDS011;7759;52.528;13.346;2022-10-15T03:42:57;13.13;;;8.37;;
15317;SDS011;7759;52.528;13.346;2022-10-15T03:45:23;12.40;;;8.33;;
15317;SDS011;7759;52.528;13.346;2022-10-15T03:47:49;13.23;;;8.83;;
15317;SDS011;7759;52.528;13.346;2022-10-15T03:50:16;13.40;;;8.50;;
15317;SDS011;7759;52.528;13.346;2022-10-15T03:52:42;17.23;;;7.80;;
15317;SDS011;7759;52.528;13.346;2022-10-15T03:55:08;12.27;;;7.83;;
15317;SDS011;7759;52.528;13.346;2022-10-15T03:57:34;12.20;;;8.27;;
15317;SDS011;7759;52.528;13.346;2022-10-15T04:00:00;15.83;;;8.10;;
15317;SDS011;7759;52.528;13.346;2022-10-15T04:02:26;12.77;;;8.20;;
15317;SDS011;7759;52.528;13.346;2022-10-15T04:04:52;12.83;;;7.93;;
15317;SDS011;7759;52.528;13.346;2022-10-15T04:07:19;15.00;;;8.33;;
15317;SDS011;7759;52.528;13.346;2022-10-15T04:09:45;15.70;;;8.27;;
15317;SDS011;7759;52.528;13.346;2022-10-15T04:12:12;11.37;;;7.67;;
15317;SDS011;7759;52.528;13.346;2022-10-15T04:14:38;13.87;;;7.83;;
15317;SDS011;7759;52.528;13.346;2022-10-15T04:17:04;9.00;;;6.27;;
15317;SDS011;7759;52.528;13.346;2022-10-15T04:19:30;12.33;;;8.07;;
15317;SDS011;7759;52.528;13.346;2022-10-15T04:21:56;10.70;;;7.23;;
15317;SDS011;7759;52.528;13.346;2022-10-15T04:24:22;11.97;;;7.50;;
15317;SDS011;7759;52.528;13.346;2022-10-15T04:26:48;13.50;;;7.80;;
15317;SDS011;7759;52.528;13.346;2022-10-15T04:29:13;14.60;;;8.60;;
15317;SDS011;7759;52.528;13.346;2022-10-15T04:31:39;10.13;;;6.60;;
15317;SDS011;7759;52.528;13.346;2022-10-15T04:34:06;15.70;;;8.47;;
15317;SDS011;7759;52.528;13.346;2022-10-15T04:36:31;15.13;;;8.47;;
15317;SDS011;7759;52.528;13.346;2022-10-15T04:38:58;11.83;;;8.17;;
15317;SDS011;7759;52.528;13.346;2022-10-15T04:41:24;11.97;;;7.00;;
15317;SDS011;7759;52.528;13.346;2022-10-15T04:43:50;11.70;;;7.83;;
15317;SDS011;7759;52.528;13.346;2022-10-15T04:46:16;10.10;;;6.90;;
15317;SDS011;7759;52.528;13.346;2022-10-15T04:48:42;13.00;;;6.50;;
15317;SDS011;7759;52.528;13.346;2022-10-15T04:51:12;10.40;;;6.90;;
15317;SDS011;7759;52.528;13.346;2022-10-15T04:53:38;11.60;;;7.30;;
15317;SDS011;7759;52.528;13.346;2022-10-15T04:56:06;9.90;;;6.70;;
15317;SDS011;7759;52.528;13.346;2022-10-15T04:58:32;9.60;;;6.30;;
15317;SDS011;7759;52.528;13.346;2022-10-15T05:00:59;12.13;;;7.10;;
15317;SDS011;7759;52.528;13.346;2022-10-15T05:03:25;9.73;;;6.70;;
15317;SDS011;7759;52.528;13.346;2022-10-15T05:05:51;9.13;;;6.87;;
15317;SDS011;7759;52.528;13.346;2022-10-15T05:08:18;17.07;;;9.13;;
15317;SDS011;7759;52.528;13.346;2022-10-15T05:10:44;11.18;;;7.28;;
15317;SDS011;7759;52.528;13.346;2022-10-15T05:13:10;10.13;;;6.10;;
15317;SDS011;7759;52.528;13.346;2022-10-15T05:15:36;10.93;;;6.80;;
15317;SDS011;7759;52.528;13.346;2022-10-15T05:18:01;8.73;;;5.93;;
15317;SDS011;7759;52.528;13.346;2022-10-15T05:20:27;9.52;;;6.93;;
15317;SDS011;7759;52.528;13.346;2022-10-15T05:22:53;9.10;;;6.23;;
15317;SDS011;7759;52.528;13.346;2022-10-15T05:25:19;7.40;;;5.40;;
15317;SDS011;7759;52.528;13.346;2022-10-15T05:27:45;10.57;;;6.00;;
15317;SDS011;7759;52.528;13.346;2022-10-15T05:30:11;9.13;;;6.37;;
15317;SDS011;7759;52.528;13.346;2022-10-15T05:32:37;8.00;;;5.93;;
15317;SDS011;7759;52.528;13.346;2022-10-15T05:35:04;10.00;;;6.37;;
15317;SDS011;7759;52.528;13.346;2022-10-15T05:37:30;10.07;;;6.43;;
15317;SDS011;7759;52.528;13.346;2022-10-15T05:39:56;10.17;;;6.27;;
15317;SDS011;7759;52.528;13.346;2022-10-15T05:42:22;8.43;;;5.27;;
15317;SDS011;7759;52.528;13.346;2022-10-15T05:44:48;8.00;;;4.90;;
15317;SDS011;7759;52.528;13.346;2022-10-15T05:47:14;10.73;;;5.93;;
15317;SDS011;7759;52.528;13.346;2022-10-15T05:49:40;7.90;;;5.40;;
15317;SDS011;7759;52.528;13.346;2022-10-15T05:52:05;7.53;;;4.70;;
15317;SDS011;7759;52.528;13.346;2022-10-15T05:54:32;11.10;;;5.93;;
15317;SDS011;7759;52.528;13.346;2022-10-15T05:56:57;7.50;;;5.57;;
15317;SDS011;7759;52.528;13.346;2022-10-15T05:59:23;6.00;;;4.07;;
15317;SDS011;7759;52.528;13.346;2022-10-15T06:01:49;7.37;;;5.03;;
15317;SDS011;7759;52.528;13.346;2022-10-15T06:04:15;8.90;;;5.43;;
15317;SDS011;7759;52.528;13.346;2022-10-15T06:06:41;8.73;;;5.33;;
15317;SDS011;7759;52.528;13.346;2022-10-15T06:09:07;8.13;;;5.53;;
15317;SDS011;7759;52.528;13.346;2022-10-15T06:11:34;7.97;;;5.87;;
15317;SDS011;7759;52.528;13.346;2022-10-15T06:14:00;10.03;;;5.40;;
15317;SDS011;7759;52.528;13.346;2022-10-15T06:16:26;8.70;;;6.47;;
15317;SDS011;7759;52.528;13.346;2022-10-15T06:18:52;8.53;;;5.53;;
15317;SDS011;7759;52.528;13.346;2022-10-15T06:21:18;11.20;;;6.43;;
15317;SDS011;7759;52.528;13.346;2022-10-15T06:23:43;5.70;;;4.10;;
15317;SDS011;7759;52.528;13.346;2022-10-15T06:26:09;8.27;;;5.30;;
15317;SDS011;7759;52.528;13.346;2022-10-15T06:28:36;7.60;;;4.93;;
15317;SDS011;7759;52.528;13.346;2022-10-15T06:31:02;9.33;;;5.70;;
15317;SDS011;7759;52.528;13.346;2022-10-15T06:33:28;8.70;;;6.80;;
15317;SDS011;7759;52.528;13.346;2022-10-15T06:35:54;9.33;;;5.77;;
15317;SDS011;7759;52.528;13.346;2022-10-15T06:38:20;9.67;;;5.70;;
15317;SDS011;7759;52.528;13.346;2022-10-15T06:40:46;8.73;;;5.23;;
15317;SDS011;7759;52.528;13.346;2022-10-15T06:43:11;7.47;;;5.17;;
15317;SDS011;7759;52.528;13.346;2022-10-15T06:45:38;9.93;;;5.83;;
15317;SDS011;7759;52.528;13.346;2022-10-15T06:48:06;8.97;;;6.23;;
15317;SDS011;7759;52.528;13.346;2022-10-15T06:50:32;8.77;;;6.17;;
15317;SDS011;7759;52.528;13.346;2022-10-15T06:52:58;8.70;;;6.23;;
15317;SDS011;7759;52.528;13.346;2022-10-15T06:55:24;8.90;;;6.40;;
15317;SDS011;7759;52.528;13.346;2022-10-15T06:57:51;8.43;;;5.60;;
15317;SDS011;7759;52.528;13.346;2022-10-15T07:00:16;10.03;;;6.27;;
15317;SDS011;7759;52.528;13.346;2022-10-15T07:02:42;8.27;;;6.10;;
15317;SDS011;7759;52.528;13.346;2022-10-15T07:05:08;9.23;;;6.00;;
15317;SDS011;7759;52.528;13.346;2022-10-15T07:07:34;9.33;;;6.33;;
15317;SDS011;7759;52.528;13.346;2022-10-15T07:10:00;7.80;;;5.10;;
15317;SDS011;7759;52.528;13.346;2022-10-15T07:12:26;11.07;;;6.10;;
15317;SDS011;7759;52.528;13.346;2022-10-15T07:14:52;9.33;;;5.43;;
15317;SDS011;7759;52.528;13.346;2022-10-15T07:17:18;5.87;;;4.20;;
15317;SDS011;7759;52.528;13.346;2022-10-15T07:19:44;7.80;;;5.30;;
15317;SDS011;7759;52.528;13.346;2022-10-15T07:22:09;9.67;;;5.70;;
15317;SDS011;7759;52.528;13.346;2022-10-15T07:24:35;6.77;;;4.77;;
15317;SDS011;7759;52.528;13.346;2022-10-15T07:27:01;7.03;;;4.40;;
15317;SDS011;7759;52.528;13.346;2022-10-15T07:29:28;7.77;;;4.93;;
15317;SDS011;7759;52.528;13.346;2022-10-15T07:31:55;6.07;;;4.43;;
15317;SDS011;7759;52.528;13.346;2022-10-15T07:34:21;6.03;;;4.30;;
15317;SDS011;7759;52.528;13.346;2022-10-15T07:36:47;7.63;;;5.30;;
15317;SDS011;7759;52.528;13.346;2022-10-15T07:39:13;7.93;;;5.40;;
15317;SDS011;7759;52.528;13.346;2022-10-15T07:41:39;7.75;;;5.72;;
15317;SDS011;7759;52.528;13.346;2022-10-15T07:44:05;8.90;;;5.40;;
15317;SDS011;7759;52.528;13.346;2022-10-15T07:46:30;9.48;;;6.35;;
15317;SDS011;7759;52.528;13.346;2022-10-15T07:48:56;8.80;;;6.18;;
15317;SDS011;7759;52.528;13.346;2022-10-15T07:51:22;7.47;;;5.63;;
15317;SDS011;7759;52.528;13.346;2022-10-15T07:53:48;10.15;;;5.90;;
15317;SDS011;7759;52.528;13.346;2022-10-15T07:56:14;8.60;;;5.45;;
15317;SDS011;7759;52.528;13.346;2022-10-15T07:58:41;9.30;;;6.20;;
15317;SDS011;7759;52.528;13.346;2022-10-15T08:01:08;10.70;;;6.00;;
15317;SDS011;7759;52.528;13.346;2022-10-15T08:03:34;8.20;;;5.40;;
15317;SDS011;7759;52.528;13.346;2022-10-15T08:06:01;8.35;;;5.13;;
15317;SDS011;7759;52.528;13.346;2022-10-15T08:08:27;8.65;;;5.20;;
15317;SDS011;7759;52.528;13.346;2022-10-15T08:10:53;8.77;;;5.68;;
15317;SDS011;7759;52.528;13.346;2022-10-15T08:13:19;9.13;;;5.45;;
15317;SDS011;7759;52.528;13.346;2022-10-15T08:15:45;7.63;;;4.90;;
15317;SDS011;7759;52.528;13.346;2022-10-15T08:18:12;9.38;;;5.07;;
15317;SDS011;7759;52.528;13.346;2022-10-15T08:20:38;8.60;;;4.30;;
15317;SDS011;7759;52.528;13.346;2022-10-15T08:23:04;6.93;;;4.82;;
15317;SDS011;7759;52.528;13.346;2022-10-15T08:25:30;6.70;;;4.65;;
15317;SDS011;7759;52.528;13.346;2022-10-15T08:27:56;6.93;;;4.43;;
15317;SDS011;7759;52.528;13.346;2022-10-15T08:30:22;7.55;;;4.68;;
15317;SDS011;7759;52.528;13.346;2022-10-15T08:32:48;5.03;;;3.70;;
15317;SDS011;7759;52.528;13.346;2022-10-15T08:35:14;5.20;;;4.10;;
15317;SDS011;7759;52.528;13.346;2022-10-15T08:37:40;6.15;;;4.10;;
15317;SDS011;7759;52.528;13.346;2022-10-15T08:40:06;6.38;;;4.80;;
15317;SDS011;7759;52.528;13.346;2022-10-15T08:42:36;6.97;;;4.72;;
15317;SDS011;7759;52.528;13.346;2022-10-15T08:45:04;5.13;;;4.00;;
15317;SDS011;7759;52.528;13.346;2022-10-15T08:47:47;7.53;;;5.30;;
15317;SDS011;7759;52.528;13.346;2022-10-15T08:50:16;8.88;;;5.28;;
15317;SDS011;7759;52.528;13.346;2022-10-15T08:52:44;9.02;;;4.70;;
15317;SDS011;7759;52.528;13.346;2022-10-15T08:55:11;5.00;;;3.95;;
15317;SDS011;7759;52.528;13.346;2022-10-15T09:02:51;6.97;;;4.40;;
15317;SDS011;7759;52.528;13.346;2022-10-15T09:05:25;6.22;;;4.25;;
15317;SDS011;7759;52.528;13.346;2022-10-15T09:07:53;5.38;;;4.15;;
15317;SDS011;7759;52.528;13.346;2022-10-15T09:13:23;8.43;;;4.95;;
15317;SDS011;7759;52.528;13.346;2022-10-15T09:15:54;7.43;;;4.75;;
15317;SDS011;7759;52.528;13.346;2022-10-15T09:18:22;9.00;;;5.05;;
15317;SDS011;7759;52.528;13.346;2022-10-15T09:20:49;8.02;;;5.10;;
15317;SDS011;7759;52.528;13.346;2022-10-15T09:23:19;5.00;;;3.78;;
15317;SDS011;7759;52.528;13.346;2022-10-15T09:25:48;5.90;;;3.95;;
15317;SDS011;7759;52.528;13.346;2022-10-15T09:28:16;5.25;;;3.88;;
15317;SDS011;7759;52.528;13.346;2022-10-15T09:30:47;8.15;;;4.40;;
15317;SDS011;7759;52.528;13.346;2022-10-15T09:33:24;6.97;;;4.90;;
15317;SDS011;7759;52.528;13.346;2022-10-15T09:40:59;7.25;;;4.38;;
15317;SDS011;7759;52.528;13.346;2022-10-15T09:43:29;5.55;;;4.07;;
15317;SDS011;7759;52.528;13.346;2022-10-15T09:45:59;7.50;;;4.40;;
15317;SDS011;7759;52.528;13.346;2022-10-15T09:48:25;8.48;;;4.88;;
15317;SDS011;7759;52.528;13.346;2022-10-15T09:50:54;5.25;;;3.78;;
15317;SDS011;7759;52.528;13.346;2022-10-15T09:55:49;5.10;;;3.78;;
15317;SDS011;7759;52.528;13.346;2022-10-15T10:00:52;5.13;;;3.63;;
15317;SDS011;7759;52.528;13.346;2022-10-15T10:03:20;5.15;;;3.50;;
15317;SDS011;7759;52.528;13.346;2022-10-15T10:05:46;5.40;;;3.75;;
15317;SDS011;7759;52.528;13.346;2022-10-15T10:08:16;4.43;;;3.20;;
15317;SDS011;7759;52.528;13.346;2022-10-15T10:10:43;6.32;;;4.15;;
15317;SDS011;7759;52.528;13.346;2022-10-15T10:16:12;4.55;;;3.08;;
15317;SDS011;7759;52.528;13.346;2022-10-15T10:18:38;5.10;;;3.65;;
15317;SDS011;7759;52.528;13.346;2022-10-15T10:21:23;3.95;;;3.13;;
15317;SDS011;7759;52.528;13.346;2022-10-15T10:23:52;6.13;;;4.00;;
15317;SDS011;7759;52.528;13.346;2022-10-15T10:26:18;4.03;;;3.55;;
15317;SDS011;7759;52.528;13.346;2022-10-15T10:28:45;4.95;;;3.50;;
15317;SDS011;7759;52.528;13.346;2022-10-15T10:31:13;4.07;;;3.65;;
15317;SDS011;7759;52.528;13.346;2022-10-15T10:33:48;4.82;;;3.17;;
15317;SDS011;7759;52.528;13.346;2022-10-15T10:36:26;5.78;;;3.40;;
15317;SDS011;7759;52.528;13.346;2022-10-15T10:39:11;5.82;;;3.53;;
15317;SDS011;7759;52.528;13.346;2022-10-15T10:41:51;3.75;;;3.10;;
15317;SDS011;7759;52.528;13.346;2022-10-15T10:44:27;4.85;;;3.45;;
15317;SDS011;7759;52.528;13.346;2022-10-15T10:47:00;4.65;;;3.00;;
15317;SDS011;7759;52.528;13.346;2022-10-15T10:49:30;6.93;;;4.53;;
15317;SDS011;7759;52.528;13.346;2022-10-15T10:51:56;3.88;;;3.40;;
15317;SDS011;7759;52.528;13.346;2022-10-15T10:54:22;4.13;;;2.92;;
15317;SDS011;7759;52.528;13.346;2022-10-15T10:56:49;4.55;;;3.10;;
15317;SDS011;7759;52.528;13.346;2022-10-15T10:59:22;4.65;;;3.72;;
15317;SDS011;7759;52.528;13.346;2022-10-15T11:01:50;3.83;;;3.05;;
15317;SDS011;7759;52.528;13.346;2022-10-15T11:04:27;3.80;;;3.25;;
15317;SDS011;7759;52.528;13.346;2022-10-15T11:06:55;6.28;;;3.35;;
15317;SDS011;7759;52.528;13.346;2022-10-15T11:14:42;4.93;;;3.00;;
15317;SDS011;7759;52.528;13.346;2022-10-15T11:20:05;3.55;;;2.67;;
15317;SDS011;7759;52.528;13.346;2022-10-15T11:22:39;5.75;;;3.22;;
15317;SDS011;7759;52.528;13.346;2022-10-15T11:25:21;4.97;;;3.05;;
15317;SDS011;7759;52.528;13.346;2022-10-15T11:27:55;5.03;;;3.35;;
15317;SDS011;7759;52.528;13.346;2022-10-15T11:30:29;4.70;;;3.33;;
15317;SDS011;7759;52.528;13.346;2022-10-15T11:33:05;4.65;;;3.42;;
15317;SDS011;7759;52.528;13.346;2022-10-15T11:38:03;5.15;;;3.60;;
15317;SDS011;7759;52.528;13.346;2022-10-15T11:45:59;4.13;;;3.50;;
15317;SDS011;7759;52.528;13.346;2022-10-15T11:48:47;3.50;;;3.20;;
15317;SDS011;7759;52.528;13.346;2022-10-15T11:51:23;6.03;;;3.17;;
15317;SDS011;7759;52.528;13.346;2022-10-15T11:56:29;4.15;;;3.70;;
15317;SDS011;7759;52.528;13.346;2022-10-15T11:58:58;6.10;;;3.22;;
15317;SDS011;7759;52.528;13.346;2022-10-15T12:01:28;4.28;;;3.10;;
15317;SDS011;7759;52.528;13.346;2022-10-15T12:03:55;4.45;;;2.67;;
15317;SDS011;7759;52.528;13.346;2022-10-15T12:06:24;4.70;;;3.30;;
15317;SDS011;7759;52.528;13.346;2022-10-15T12:08:51;5.45;;;3.25;;
15317;SDS011;7759;52.528;13.346;2022-10-15T12:11:20;4.15;;;2.85;;
15317;SDS011;7759;52.528;13.346;2022-10-15T12:14:03;4.70;;;2.97;;
15317;SDS011;7759;52.528;13.346;2022-10-15T12:16:34;4.30;;;3.28;;
15317;SDS011;7759;52.528;13.346;2022-10-15T12:19:09;4.03;;;3.13;;
15317;SDS011;7759;52.528;13.346;2022-10-15T12:21:37;3.92;;;3.13;;
15317;SDS011;7759;52.528;13.346;2022-10-15T12:24:04;4.20;;;3.28;;
15317;SDS011;7759;52.528;13.346;2022-10-15T12:26:34;4.03;;;3.00;;
15317;SDS011;7759;52.528;13.346;2022-10-15T12:29:04;4.50;;;3.25;;
15317;SDS011;7759;52.528;13.346;2022-10-15T12:34:23;4.07;;;3.00;;
15317;SDS011;7759;52.528;13.346;2022-10-15T12:36:57;3.28;;;2.75;;
15317;SDS011;7759;52.528;13.346;2022-10-15T12:39:24;3.35;;;2.90;;
15317;SDS011;7759;52.528;13.346;2022-10-15T12:41:50;2.80;;;2.50;;
15317;SDS011;7759;52.528;13.346;2022-10-15T12:44:26;4.22;;;2.88;;
15317;SDS011;7759;52.528;13.346;2022-10-15T12:46:54;3.78;;;2.55;;
15317;SDS011;7759;52.528;13.346;2022-10-15T12:51:56;3.47;;;2.10;;
15317;SDS011;7759;52.528;13.346;2022-10-15T12:54:39;3.58;;;2.00;;
15317;SDS011;7759;52.528;13.346;2022-10-15T12:57:49;3.05;;;2.13;;
15317;SDS011;7759;52.528;13.346;2022-10-15T12:59:54;3.10;;;2.60;;
15317;SDS011;7759;52.528;13.346;2022-10-15T13:05:28;4.88;;;2.40;;
15317;SDS011;7759;52.528;13.346;2022-10-15T13:07:55;2.53;;;2.28;;
15317;SDS011;7759;52.528;13.346;2022-10-15T13:10:26;2.10;;;1.88;;
15317;SDS011;7759;52.528;13.346;2022-10-15T13:12:54;3.47;;;1.80;;
15317;SDS011;7759;52.528;13.346;2022-10-15T13:15:22;2.28;;;2.08;;
15317;SDS011;7759;52.528;13.346;2022-10-15T13:17:49;2.97;;;2.30;;
15317;SDS011;7759;52.528;13.346;2022-10-15T13:20:35;2.17;;;1.80;;
15317;SDS011;7759;52.528;13.346;2022-10-15T13:25:33;2.45;;;1.75;;
15317;SDS011;7759;52.528;13.346;2022-10-15T13:27:59;3.13;;;2.83;;
15317;SDS011;7759;52.528;13.346;2022-10-15T13:30:25;2.47;;;1.98;;
15317;SDS011;7759;52.528;13.346;2022-10-15T13:32:52;3.78;;;2.05;;
15317;SDS011;7759;52.528;13.346;2022-10-15T13:35:22;2.20;;;1.95;;
15317;SDS011;7759;52.528;13.346;2022-10-15T13:37:50;2.25;;;1.92;;
15317;SDS011;7759;52.528;13.346;2022-10-15T13:40:20;3.75;;;2.00;;
15317;SDS011;7759;52.528;13.346;2022-10-15T13:42:59;3.28;;;2.22;;
15317;SDS011;7759;52.528;13.346;2022-10-15T13:45:26;4.43;;;1.70;;
15317;SDS011;7759;52.528;13.346;2022-10-15T13:47:53;2.70;;;1.90;;
15317;SDS011;7759;52.528;13.346;2022-10-15T13:50:20;3.55;;;2.03;;
15317;SDS011;7759;52.528;13.346;2022-10-15T13:52:48;2.20;;;1.75;;
15317;SDS011;7759;52.528;13.346;2022-10-15T13:55:16;3.40;;;2.30;;
15317;SDS011;7759;52.528;13.346;2022-10-15T13:57:43;4.65;;;1.98;;
15317;SDS011;7759;52.528;13.346;2022-10-15T14:00:20;1.77;;;1.65;;
15317;SDS011;7759;52.528;13.346;2022-10-15T14:02:46;7.20;;;1.98;;
15317;SDS011;7759;52.528;13.346;2022-10-15T14:05:30;2.17;;;1.63;;
15317;SDS011;7759;52.528;13.346;2022-10-15T14:07:56;1.83;;;1.50;;
15317;SDS011;7759;52.528;13.346;2022-10-15T14:10:22;2.75;;;1.77;;
15317;SDS011;7759;52.528;13.346;2022-10-15T14:12:48;1.83;;;1.50;;
15317;SDS011;7759;52.528;13.346;2022-10-15T14:18:00;2.80;;;1.63;;
15317;SDS011;7759;52.528;13.346;2022-10-15T14:20:26;2.08;;;1.48;;
15317;SDS011;7759;52.528;13.346;2022-10-15T14:22:52;2.65;;;1.52;;
15317;SDS011;7759;52.528;13.346;2022-10-15T14:25:22;1.67;;;1.50;;
15317;SDS011;7759;52.528;13.346;2022-10-15T14:27:48;2.15;;;1.30;;
15317;SDS011;7759;52.528;13.346;2022-10-15T14:30:27;3.65;;;1.60;;
15317;SDS011;7759;52.528;13.346;2022-10-15T14:32:55;2.15;;;1.10;;
15317;SDS011;7759;52.528;13.346;2022-10-15T14:35:24;2.30;;;2.10;;
15317;SDS011;7759;52.528;13.346;2022-10-15T14:37:57;1.90;;;1.50;;
15317;SDS011;7759;52.528;13.346;2022-10-15T14:40:24;1.98;;;1.33;;
15317;SDS011;7759;52.528;13.346;2022-10-15T14:45:22;1.60;;;1.50;;
15317;SDS011;7759;52.528;13.346;2022-10-15T14:47:55;1.58;;;1.15;;
15317;SDS011;7759;52.528;13.346;2022-10-15T14:50:22;2.13;;;1.50;;
15317;SDS011;7759;52.528;13.346;2022-10-15T14:52:50;1.63;;;1.45;;
15317;SDS011;7759;52.528;13.346;2022-10-15T14:57:48;1.60;;;1.50;;
15317;SDS011;7759;52.528;13.346;2022-10-15T15:02:41;3.35;;;1.40;;
15317;SDS011;7759;52.528;13.346;2022-10-15T15:07:36;2.05;;;1.80;;
15317;SDS011;7759;52.528;13.346;2022-10-15T15:10:02;1.45;;;1.23;;
15317;SDS011;7759;52.528;13.346;2022-10-15T15:12:28;2.50;;;1.80;;
15317;SDS011;7759;52.528;13.346;2022-10-15T15:14:58;1.52;;;1.42;;
15317;SDS011;7759;52.528;13.346;2022-10-15T15:17:24;2.53;;;1.80;;
15317;SDS011;7759;52.528;13.346;2022-10-15T15:19:51;7.72;;;1.90;;
15317;SDS011;7759;52.528;13.346;2022-10-15T15:22:36;2.20;;;1.30;;
15317;SDS011;7759;52.528;13.346;2022-10-15T15:25:05;3.40;;;1.48;;
15317;SDS011;7759;52.528;13.346;2022-10-15T15:27:34;2.17;;;1.98;;
15317;SDS011;7759;52.528;13.346;2022-10-15T15:30:04;2.15;;;1.80;;
15317;SDS011;7759;52.528;13.346;2022-10-15T15:32:30;2.30;;;1.63;;
15317;SDS011;7759;52.528;13.346;2022-10-15T15:34:56;1.35;;;1.25;;
15317;SDS011;7759;52.528;13.346;2022-10-15T15:37:23;3.15;;;1.80;;
15317;SDS011;7759;52.528;13.346;2022-10-15T15:39:49;4.45;;;1.58;;
15317;SDS011;7759;52.528;13.346;2022-10-15T15:42:19;2.17;;;1.65;;
15317;SDS011;7759;52.528;13.346;2022-10-15T15:44:45;2.15;;;1.58;;
15317;SDS011;7759;52.528;13.346;2022-10-15T15:47:11;2.10;;;1.90;;
15317;SDS011;7759;52.528;13.346;2022-10-15T15:49:38;3.72;;;2.00;;
15317;SDS011;7759;52.528;13.346;2022-10-15T15:52:05;2.05;;;1.70;;
15317;SDS011;7759;52.528;13.346;2022-10-15T15:54:32;3.72;;;2.00;;
15317;SDS011;7759;52.528;13.346;2022-10-15T15:56:58;2.47;;;1.63;;
15317;SDS011;7759;52.528;13.346;2022-10-15T15:59:24;4.45;;;2.80;;
15317;SDS011;7759;52.528;13.346;2022-10-15T16:01:50;3.22;;;2.00;;
15317;SDS011;7759;52.528;13.346;2022-10-15T16:04:16;2.42;;;1.70;;
15317;SDS011;7759;52.528;13.346;2022-10-15T16:06:42;4.55;;;1.90;;